sensor_id;sensor_type;location;lat;lon;timestamp;P1;durP1;ratioP1;P2;durP2;ratioP2
20124;SDS011;10223;50.862;4.360;2023-06-04T00:02:16;4.93;;;1.50;;
20124;SDS011;10223;50.862;4.360;2023-06-04T00:04:43;8.80;;;1.60;;
20124;SDS011;10223;50.862;4.360;2023-06-04T00:07:10;6.78;;;1.20;;
20124;SDS011;10223;50.862;4.360;2023-06-04T00:09:37;2.60;;;1.27;;
20124;SDS011;10223;50.862;4.360;2023-06-04T00:12:04;3.15;;;1.30;;
20124;SDS011;10223;50.862;4.360;2023-06-04T00:14:33;5.57;;;1.50;;
20124;SDS011;10223;50.862;4.360;2023-06-04T00:17:00;3.92;;;1.35;;
20124;SDS011;10223;50.862;4.360;2023-06-04T00:19:27;4.43;;;1.65;;
20124;SDS011;10223;50.862;4.360;2023-06-04T00:21:54;6.25;;;1.55;;
20124;SDS011;10223;50.862;4.360;2023-06-04T00:24:21;4.15;;;1.55;;
20124;SDS011;10223;50.862;4.360;2023-06-04T00:26:48;2.35;;;1.40;;
20124;SDS011;10223;50.862;4.360;2023-06-04T00:29:15;2.65;;;1.23;;
20124;SDS011;10223;50.862;4.360;2023-06-04T00:31:43;2.60;;;1.35;;
20124;SDS011;10223;50.862;4.360;2023-06-04T00:34:10;4.18;;;1.50;;
20124;SDS011;10223;50.862;4.360;2023-06-04T00:36:39;4.70;;;1.20;;
20124;SDS011;10223;50.862;4.360;2023-06-04T00:39:06;3.65;;;1.65;;
20124;SDS011;10223;50.862;4.360;2023-06-04T00:41:33;7.32;;;1.50;;
20124;SDS011;10223;50.862;4.360;2023-06-04T00:44:00;4.35;;;1.20;;
20124;SDS011;10223;50.862;4.360;2023-06-04T00:46:27;6.00;;;1.27;;
20124;SDS011;10223;50.862;4.360;2023-06-04T00:48:57;5.63;;;1.40;;
20124;SDS011;10223;50.862;4.360;2023-06-04T00:51:25;3.37;;;1.33;;
20124;SDS011;10223;50.862;4.360;2023-06-04T00:53:52;5.45;;;1.30;;
20124;SDS011;10223;50.862;4.360;2023-06-04T00:56:19;4.75;;;1.48;;
20124;SDS011;10223;50.862;4.360;2023-06-04T00:58:46;5.13;;;1.20;;
20124;SDS011;10223;50.862;4.360;2023-06-04T01:01:17;3.47;;;1.20;;
20124;SDS011;10223;50.862;4.360;2023-06-04T01:03:51;5.77;;;1.37;;
20124;SDS011;10223;50.862;4.360;2023-06-04T01:06:24;2.97;;;1.40;;
20124;SDS011;10223;50.862;4.360;2023-06-04T01:08:57;5.60;;;1.60;;
20124;SDS011;10223;50.862;4.360;2023-06-04T01:11:31;4.80;;;1.60;;
20124;SDS011;10223;50.862;4.360;2023-06-04T01:13:59;6.10;;;1.90;;
20124;SDS011;10223;50.862;4.360;2023-06-04T01:16:27;12.13;;;1.87;;
20124;SDS011;10223;50.862;4.360;2023-06-04T01:18:57;5.80;;;1.80;;
20124;SDS011;10223;50.862;4.360;2023-06-04T01:21:28;5.80;;;1.90;;
20124;SDS011;10223;50.862;4.360;2023-06-04T01:24:00;8.00;;;1.43;;
20124;SDS011;10223;50.862;4.360;2023-06-04T01:26:32;7.33;;;1.70;;
20124;SDS011;10223;50.862;4.360;2023-06-04T01:28:59;9.50;;;1.73;;
20124;SDS011;10223;50.862;4.360;2023-06-04T01:31:27;3.70;;;1.87;;
20124;SDS011;10223;50.862;4.360;2023-06-04T01:33:58;5.93;;;1.63;;
20124;SDS011;10223;50.862;4.360;2023-06-04T01:36:25;2.63;;;1.47;;
20124;SDS011;10223;50.862;4.360;2023-06-04T01:38:53;5.50;;;1.90;;
20124;SDS011;10223;50.862;4.360;2023-06-04T01:41:20;6.53;;;1.87;;
20124;SDS011;10223;50.862;4.360;2023-06-04T01:43:47;5.33;;;1.80;;
20124;SDS011;10223;50.862;4.360;2023-06-04T01:46:14;2.97;;;1.80;;
20124;SDS011;10223;50.862;4.360;2023-06-04T01:48:41;4.30;;;1.60;;
20124;SDS011;10223;50.862;4.360;2023-06-04T01:51:08;8.50;;;1.60;;
20124;SDS011;10223;50.862;4.360;2023-06-04T01:53:35;5.47;;;1.70;;
20124;SDS011;10223;50.862;4.360;2023-06-04T01:56:04;5.23;;;1.70;;
20124;SDS011;10223;50.862;4.360;2023-06-04T01:58:32;3.03;;;1.87;;
20124;SDS011;10223;50.862;4.360;2023-06-04T02:00:59;3.07;;;1.70;;
20124;SDS011;10223;50.862;4.360;2023-06-04T02:03:28;3.50;;;1.80;;
20124;SDS011;10223;50.862;4.360;2023-06-04T02:06:02;6.17;;;1.97;;
20124;SDS011;10223;50.862;4.360;2023-06-04T02:08:29;5.00;;;1.80;;
20124;SDS011;10223;50.862;4.360;2023-06-04T02:10:58;3.37;;;1.80;;
20124;SDS011;10223;50.862;4.360;2023-06-04T02:13:26;6.13;;;1.60;;
20124;SDS011;10223;50.862;4.360;2023-06-04T02:15:53;3.97;;;1.77;;
20124;SDS011;10223;50.862;4.360;2023-06-04T02:18:20;4.00;;;1.60;;
20124;SDS011;10223;50.862;4.360;2023-06-04T02:20:48;3.40;;;1.73;;
20124;SDS011;10223;50.862;4.360;2023-06-04T02:23:16;3.67;;;1.63;;
20124;SDS011;10223;50.862;4.360;2023-06-04T02:25:44;10.33;;;1.87;;
20124;SDS011;10223;50.862;4.360;2023-06-04T02:28:12;9.23;;;2.20;;
20124;SDS011;10223;50.862;4.360;2023-06-04T02:30:41;6.43;;;1.83;;
20124;SDS011;10223;50.862;4.360;2023-06-04T02:33:08;8.30;;;1.97;;
20124;SDS011;10223;50.862;4.360;2023-06-04T02:35:36;3.10;;;1.60;;
20124;SDS011;10223;50.862;4.360;2023-06-04T02:38:03;4.77;;;1.80;;
20124;SDS011;10223;50.862;4.360;2023-06-04T02:40:30;5.67;;;1.90;;
20124;SDS011;10223;50.862;4.360;2023-06-04T02:42:57;3.17;;;1.87;;
20124;SDS011;10223;50.862;4.360;2023-06-04T02:45:24;3.33;;;1.97;;
20124;SDS011;10223;50.862;4.360;2023-06-04T02:47:53;3.73;;;1.87;;
20124;SDS011;10223;50.862;4.360;2023-06-04T02:50:20;4.70;;;2.20;;
20124;SDS011;10223;50.862;4.360;2023-06-04T02:52:47;5.23;;;2.07;;
20124;SDS011;10223;50.862;4.360;2023-06-04T02:55:14;7.70;;;2.40;;
20124;SDS011;10223;50.862;4.360;2023-06-04T02:57:41;6.47;;;1.87;;
20124;SDS011;10223;50.862;4.360;2023-06-04T03:00:08;4.43;;;2.17;;
20124;SDS011;10223;50.862;4.360;2023-06-04T03:02:39;4.93;;;1.67;;
20124;SDS011;10223;50.862;4.360;2023-06-04T03:05:09;3.30;;;1.60;;
20124;SDS011;10223;50.862;4.360;2023-06-04T03:07:40;3.07;;;1.83;;
20124;SDS011;10223;50.862;4.360;2023-06-04T03:10:10;6.70;;;2.13;;
20124;SDS011;10223;50.862;4.360;2023-06-04T03:12:37;4.67;;;1.57;;
20124;SDS011;10223;50.862;4.360;2023-06-04T03:15:05;3.03;;;1.70;;
20124;SDS011;10223;50.862;4.360;2023-06-04T03:17:32;4.10;;;1.67;;
20124;SDS011;10223;50.862;4.360;2023-06-04T03:19:59;7.83;;;2.00;;
20124;SDS011;10223;50.862;4.360;2023-06-04T03:22:28;3.53;;;1.83;;
20124;SDS011;10223;50.862;4.360;2023-06-04T03:24:55;4.90;;;1.90;;
20124;SDS011;10223;50.862;4.360;2023-06-04T03:27:25;7.50;;;2.67;;
20124;SDS011;10223;50.862;4.360;2023-06-04T03:29:52;8.37;;;2.30;;
20124;SDS011;10223;50.862;4.360;2023-06-04T03:32:19;4.23;;;2.03;;
20124;SDS011;10223;50.862;4.360;2023-06-04T03:34:46;6.03;;;2.07;;
20124;SDS011;10223;50.862;4.360;2023-06-04T03:37:16;5.13;;;2.00;;
20124;SDS011;10223;50.862;4.360;2023-06-04T03:39:44;3.90;;;2.17;;
20124;SDS011;10223;50.862;4.360;2023-06-04T03:42:11;4.30;;;2.10;;
20124;SDS011;10223;50.862;4.360;2023-06-04T03:44:38;6.57;;;2.10;;
20124;SDS011;10223;50.862;4.360;2023-06-04T03:47:05;12.60;;;2.27;;
20124;SDS011;10223;50.862;4.360;2023-06-04T03:49:32;3.23;;;2.00;;
20124;SDS011;10223;50.862;4.360;2023-06-04T03:51:59;4.37;;;2.07;;
20124;SDS011;10223;50.862;4.360;2023-06-04T03:54:26;4.17;;;2.20;;
20124;SDS011;10223;50.862;4.360;2023-06-04T03:56:54;4.53;;;2.20;;
20124;SDS011;10223;50.862;4.360;2023-06-04T03:59:21;5.00;;;2.10;;
20124;SDS011;10223;50.862;4.360;2023-06-04T04:01:48;3.10;;;1.90;;
20124;SDS011;10223;50.862;4.360;2023-06-04T04:04:15;8.60;;;2.30;;
20124;SDS011;10223;50.862;4.360;2023-06-04T04:06:42;3.93;;;2.00;;
20124;SDS011;10223;50.862;4.360;2023-06-04T04:09:09;2.87;;;1.80;;
20124;SDS011;10223;50.862;4.360;2023-06-04T04:11:36;4.33;;;2.37;;
20124;SDS011;10223;50.862;4.360;2023-06-04T04:14:04;4.27;;;2.20;;
20124;SDS011;10223;50.862;4.360;2023-06-04T04:16:31;10.90;;;2.50;;
20124;SDS011;10223;50.862;4.360;2023-06-04T04:18:58;13.83;;;3.00;;
20124;SDS011;10223;50.862;4.360;2023-06-04T04:21:25;5.97;;;3.07;;
20124;SDS011;10223;50.862;4.360;2023-06-04T04:23:52;5.53;;;2.23;;
20124;SDS011;10223;50.862;4.360;2023-06-04T04:26:19;9.80;;;2.70;;
20124;SDS011;10223;50.862;4.360;2023-06-04T04:28:47;5.80;;;3.00;;
20124;SDS011;10223;50.862;4.360;2023-06-04T04:31:16;6.20;;;2.27;;
20124;SDS011;10223;50.862;4.360;2023-06-04T04:33:43;7.63;;;2.20;;
20124;SDS011;10223;50.862;4.360;2023-06-04T04:36:10;4.60;;;1.97;;
20124;SDS011;10223;50.862;4.360;2023-06-04T04:38:39;3.23;;;2.40;;
20124;SDS011;10223;50.862;4.360;2023-06-04T04:41:06;6.87;;;2.57;;
20124;SDS011;10223;50.862;4.360;2023-06-04T04:43:34;4.50;;;2.03;;
20124;SDS011;10223;50.862;4.360;2023-06-04T04:46:02;3.20;;;2.20;;
20124;SDS011;10223;50.862;4.360;2023-06-04T04:48:31;3.33;;;2.10;;
20124;SDS011;10223;50.862;4.360;2023-06-04T04:50:59;7.10;;;2.30;;
20124;SDS011;10223;50.862;4.360;2023-06-04T04:53:26;3.80;;;2.33;;
20124;SDS011;10223;50.862;4.360;2023-06-04T04:55:53;9.37;;;2.20;;
20124;SDS011;10223;50.862;4.360;2023-06-04T04:58:20;2.90;;;2.20;;
20124;SDS011;10223;50.862;4.360;2023-06-04T05:00:47;3.57;;;2.33;;
20124;SDS011;10223;50.862;4.360;2023-06-04T05:03:14;3.77;;;2.10;;
20124;SDS011;10223;50.862;4.360;2023-06-04T05:05:43;5.23;;;2.50;;
20124;SDS011;10223;50.862;4.360;2023-06-04T05:08:11;3.93;;;2.27;;
20124;SDS011;10223;50.862;4.360;2023-06-04T05:10:38;7.07;;;2.33;;
20124;SDS011;10223;50.862;4.360;2023-06-04T05:13:05;5.07;;;2.40;;
20124;SDS011;10223;50.862;4.360;2023-06-04T05:15:32;5.77;;;2.10;;
20124;SDS011;10223;50.862;4.360;2023-06-04T05:17:59;5.37;;;2.57;;
20124;SDS011;10223;50.862;4.360;2023-06-04T05:20:27;4.83;;;2.20;;
20124;SDS011;10223;50.862;4.360;2023-06-04T05:22:56;3.33;;;2.30;;
20124;SDS011;10223;50.862;4.360;2023-06-04T05:25:23;5.63;;;2.17;;
20124;SDS011;10223;50.862;4.360;2023-06-04T05:27:52;4.47;;;2.50;;
20124;SDS011;10223;50.862;4.360;2023-06-04T05:30:19;5.93;;;2.70;;
20124;SDS011;10223;50.862;4.360;2023-06-04T05:32:49;4.17;;;2.83;;
20124;SDS011;10223;50.862;4.360;2023-06-04T05:35:18;5.43;;;2.50;;
20124;SDS011;10223;50.862;4.360;2023-06-04T05:37:45;5.93;;;2.37;;
20124;SDS011;10223;50.862;4.360;2023-06-04T05:40:20;10.50;;;2.93;;
20124;SDS011;10223;50.862;4.360;2023-06-04T05:42:47;7.10;;;2.97;;
20124;SDS011;10223;50.862;4.360;2023-06-04T05:45:14;5.13;;;2.47;;
20124;SDS011;10223;50.862;4.360;2023-06-04T05:47:41;6.23;;;2.83;;
20124;SDS011;10223;50.862;4.360;2023-06-04T05:50:08;4.80;;;2.30;;
20124;SDS011;10223;50.862;4.360;2023-06-04T05:52:36;7.10;;;2.77;;
20124;SDS011;10223;50.862;4.360;2023-06-04T05:55:03;3.13;;;2.13;;
20124;SDS011;10223;50.862;4.360;2023-06-04T05:57:33;5.40;;;2.60;;
20124;SDS011;10223;50.862;4.360;2023-06-04T06:00:01;3.10;;;1.97;;
20124;SDS011;10223;50.862;4.360;2023-06-04T06:02:29;3.63;;;2.40;;
20124;SDS011;10223;50.862;4.360;2023-06-04T06:04:57;6.53;;;3.33;;
20124;SDS011;10223;50.862;4.360;2023-06-04T06:07:24;5.13;;;2.50;;
20124;SDS011;10223;50.862;4.360;2023-06-04T06:09:51;5.80;;;2.70;;
20124;SDS011;10223;50.862;4.360;2023-06-04T06:12:18;9.43;;;2.90;;
20124;SDS011;10223;50.862;4.360;2023-06-04T06:14:46;5.47;;;2.70;;
20124;SDS011;10223;50.862;4.360;2023-06-04T06:17:13;4.73;;;2.37;;
20124;SDS011;10223;50.862;4.360;2023-06-04T06:19:40;7.10;;;2.40;;
20124;SDS011;10223;50.862;4.360;2023-06-04T06:22:07;7.10;;;2.93;;
20124;SDS011;10223;50.862;4.360;2023-06-04T06:24:35;6.93;;;2.83;;
20124;SDS011;10223;50.862;4.360;2023-06-04T06:27:02;9.20;;;4.00;;
20124;SDS011;10223;50.862;4.360;2023-06-04T06:29:30;4.70;;;2.50;;
20124;SDS011;10223;50.862;4.360;2023-06-04T06:31:58;6.60;;;3.40;;
20124;SDS011;10223;50.862;4.360;2023-06-04T06:34:25;5.33;;;2.70;;
20124;SDS011;10223;50.862;4.360;2023-06-04T06:36:52;7.90;;;2.60;;
20124;SDS011;10223;50.862;4.360;2023-06-04T06:39:19;5.87;;;3.67;;
20124;SDS011;10223;50.862;4.360;2023-06-04T06:41:46;5.23;;;2.83;;
20124;SDS011;10223;50.862;4.360;2023-06-04T06:44:13;9.07;;;4.63;;
20124;SDS011;10223;50.862;4.360;2023-06-04T06:46:40;7.40;;;2.73;;
20124;SDS011;10223;50.862;4.360;2023-06-04T06:49:10;5.73;;;2.90;;
20124;SDS011;10223;50.862;4.360;2023-06-04T06:51:37;6.90;;;2.63;;
20124;SDS011;10223;50.862;4.360;2023-06-04T06:54:04;7.03;;;2.63;;
20124;SDS011;10223;50.862;4.360;2023-06-04T06:56:32;4.90;;;2.45;;
20124;SDS011;10223;50.862;4.360;2023-06-04T06:58:59;5.57;;;2.90;;
20124;SDS011;10223;50.862;4.360;2023-06-04T07:01:26;6.83;;;2.87;;
20124;SDS011;10223;50.862;4.360;2023-06-04T07:03:53;5.47;;;2.73;;
20124;SDS011;10223;50.862;4.360;2023-06-04T07:06:21;7.03;;;2.80;;
20124;SDS011;10223;50.862;4.360;2023-06-04T07:08:48;8.55;;;2.30;;
20124;SDS011;10223;50.862;4.360;2023-06-04T07:11:15;4.95;;;2.92;;
20124;SDS011;10223;50.862;4.360;2023-06-04T07:13:43;3.83;;;2.63;;
20124;SDS011;10223;50.862;4.360;2023-06-04T07:16:10;5.78;;;2.40;;
20124;SDS011;10223;50.862;4.360;2023-06-04T07:18:37;4.05;;;2.35;;
20124;SDS011;10223;50.862;4.360;2023-06-04T07:21:03;4.53;;;2.10;;
20124;SDS011;10223;50.862;4.360;2023-06-04T07:23:32;4.53;;;2.30;;
20124;SDS011;10223;50.862;4.360;2023-06-04T07:25:59;5.90;;;2.30;;
20124;SDS011;10223;50.862;4.360;2023-06-04T07:28:26;8.80;;;3.33;;
20124;SDS011;10223;50.862;4.360;2023-06-04T07:30:52;7.68;;;1.90;;
20124;SDS011;10223;50.862;4.360;2023-06-04T07:33:19;6.45;;;1.90;;
20124;SDS011;10223;50.862;4.360;2023-06-04T07:35:53;4.55;;;1.70;;
20124;SDS011;10223;50.862;4.360;2023-06-04T07:38:19;3.10;;;1.90;;
20124;SDS011;10223;50.862;4.360;2023-06-04T07:40:48;9.18;;;1.95;;
20124;SDS011;10223;50.862;4.360;2023-06-04T07:43:15;5.68;;;1.90;;
20124;SDS011;10223;50.862;4.360;2023-06-04T07:45:42;3.60;;;1.85;;
20124;SDS011;10223;50.862;4.360;2023-06-04T07:48:09;5.75;;;1.65;;
20124;SDS011;10223;50.862;4.360;2023-06-04T07:50:36;4.10;;;1.92;;
20124;SDS011;10223;50.862;4.360;2023-06-04T07:53:05;3.05;;;1.60;;
20124;SDS011;10223;50.862;4.360;2023-06-04T07:55:39;4.80;;;1.80;;
20124;SDS011;10223;50.862;4.360;2023-06-04T07:58:07;4.80;;;1.85;;
20124;SDS011;10223;50.862;4.360;2023-06-04T08:00:34;6.57;;;1.67;;
20124;SDS011;10223;50.862;4.360;2023-06-04T08:03:01;3.38;;;2.00;;
20124;SDS011;10223;50.862;4.360;2023-06-04T08:05:28;6.72;;;1.92;;
20124;SDS011;10223;50.862;4.360;2023-06-04T08:07:55;2.95;;;1.58;;
20124;SDS011;10223;50.862;4.360;2023-06-04T08:10:22;2.97;;;2.00;;
20124;SDS011;10223;50.862;4.360;2023-06-04T08:12:49;4.25;;;1.35;;
20124;SDS011;10223;50.862;4.360;2023-06-04T08:15:17;3.63;;;1.63;;
20124;SDS011;10223;50.862;4.360;2023-06-04T08:17:44;4.22;;;1.60;;
20124;SDS011;10223;50.862;4.360;2023-06-04T08:20:11;3.80;;;1.50;;
20124;SDS011;10223;50.862;4.360;2023-06-04T08:22:38;3.70;;;1.50;;
20124;SDS011;10223;50.862;4.360;2023-06-04T08:25:06;6.13;;;1.58;;
20124;SDS011;10223;50.862;4.360;2023-06-04T08:27:34;4.68;;;1.48;;
20124;SDS011;10223;50.862;4.360;2023-06-04T08:30:01;6.68;;;1.58;;
20124;SDS011;10223;50.862;4.360;2023-06-04T08:32:29;5.25;;;1.30;;
20124;SDS011;10223;50.862;4.360;2023-06-04T08:34:57;3.20;;;1.40;;
20124;SDS011;10223;50.862;4.360;2023-06-04T08:37:24;5.78;;;1.42;;
20124;SDS011;10223;50.862;4.360;2023-06-04T08:39:51;2.85;;;1.20;;
20124;SDS011;10223;50.862;4.360;2023-06-04T08:42:21;4.03;;;1.50;;
20124;SDS011;10223;50.862;4.360;2023-06-04T08:44:53;4.53;;;1.40;;
20124;SDS011;10223;50.862;4.360;2023-06-04T08:47:21;4.40;;;1.40;;
20124;SDS011;10223;50.862;4.360;2023-06-04T08:49:52;6.47;;;1.15;;
20124;SDS011;10223;50.862;4.360;2023-06-04T08:52:24;4.43;;;1.10;;
20124;SDS011;10223;50.862;4.360;2023-06-04T08:54:52;8.80;;;1.58;;
20124;SDS011;10223;50.862;4.360;2023-06-04T08:57:21;3.70;;;1.20;;
20124;SDS011;10223;50.862;4.360;2023-06-04T08:59:48;4.10;;;1.10;;
20124;SDS011;10223;50.862;4.360;2023-06-04T09:02:16;4.28;;;1.30;;
20124;SDS011;10223;50.862;4.360;2023-06-04T09:04:43;7.35;;;1.75;;
20124;SDS011;10223;50.862;4.360;2023-06-04T09:07:12;5.55;;;1.40;;
20124;SDS011;10223;50.862;4.360;2023-06-04T09:09:40;7.35;;;2.30;;
20124;SDS011;10223;50.862;4.360;2023-06-04T09:12:13;3.65;;;1.20;;
20124;SDS011;10223;50.862;4.360;2023-06-04T09:14:45;4.05;;;1.20;;
20124;SDS011;10223;50.862;4.360;2023-06-04T09:17:15;4.28;;;1.27;;
20124;SDS011;10223;50.862;4.360;2023-06-04T09:19:47;2.58;;;1.23;;
20124;SDS011;10223;50.862;4.360;2023-06-04T09:22:15;3.67;;;1.92;;
20124;SDS011;10223;50.862;4.360;2023-06-04T09:24:42;8.65;;;1.52;;
20124;SDS011;10223;50.862;4.360;2023-06-04T09:27:12;2.55;;;1.35;;
20124;SDS011;10223;50.862;4.360;2023-06-04T09:29:40;2.88;;;1.35;;
20124;SDS011;10223;50.862;4.360;2023-06-04T09:32:14;2.40;;;1.30;;
20124;SDS011;10223;50.862;4.360;2023-06-04T09:34:47;3.92;;;1.48;;
20124;SDS011;10223;50.862;4.360;2023-06-04T09:37:15;3.95;;;1.17;;
20124;SDS011;10223;50.862;4.360;2023-06-04T09:39:43;4.05;;;1.70;;
20124;SDS011;10223;50.862;4.360;2023-06-04T09:42:10;4.47;;;1.58;;
20124;SDS011;10223;50.862;4.360;2023-06-04T09:44:42;7.93;;;1.63;;
20124;SDS011;10223;50.862;4.360;2023-06-04T09:47:10;3.10;;;1.50;;
20124;SDS011;10223;50.862;4.360;2023-06-04T09:49:40;5.45;;;2.17;;
20124;SDS011;10223;50.862;4.360;2023-06-04T09:52:10;2.72;;;1.30;;
20124;SDS011;10223;50.862;4.360;2023-06-04T09:54:39;6.85;;;1.70;;
20124;SDS011;10223;50.862;4.360;2023-06-04T09:57:13;2.38;;;1.20;;
20124;SDS011;10223;50.862;4.360;2023-06-04T09:59:43;4.68;;;1.90;;
20124;SDS011;10223;50.862;4.360;2023-06-04T10:02:11;5.00;;;1.63;;
20124;SDS011;10223;50.862;4.360;2023-06-04T10:04:39;3.35;;;1.48;;
20124;SDS011;10223;50.862;4.360;2023-06-04T10:07:07;3.28;;;1.52;;
20124;SDS011;10223;50.862;4.360;2023-06-04T10:09:36;4.13;;;1.88;;
20124;SDS011;10223;50.862;4.360;2023-06-04T10:12:11;5.40;;;1.30;;
20124;SDS011;10223;50.862;4.360;2023-06-04T10:14:41;3.17;;;1.50;;
20124;SDS011;10223;50.862;4.360;2023-06-04T10:17:13;3.53;;;1.23;;
20124;SDS011;10223;50.862;4.360;2023-06-04T10:19:43;4.60;;;1.63;;
20124;SDS011;10223;50.862;4.360;2023-06-04T10:22:11;6.40;;;1.63;;
20124;SDS011;10223;50.862;4.360;2023-06-04T10:24:39;6.80;;;1.95;;
20124;SDS011;10223;50.862;4.360;2023-06-04T10:27:06;4.00;;;1.60;;
20124;SDS011;10223;50.862;4.360;2023-06-04T10:29:36;7.65;;;2.00;;
20124;SDS011;10223;50.862;4.360;2023-06-04T10:32:03;6.43;;;1.77;;
20124;SDS011;10223;50.862;4.360;2023-06-04T10:34:30;7.07;;;2.03;;
20124;SDS011;10223;50.862;4.360;2023-06-04T10:36:58;5.95;;;1.73;;
20124;SDS011;10223;50.862;4.360;2023-06-04T10:39:25;2.65;;;1.60;;
20124;SDS011;10223;50.862;4.360;2023-06-04T10:42:02;6.10;;;2.22;;
20124;SDS011;10223;50.862;4.360;2023-06-04T10:44:30;6.53;;;1.85;;
20124;SDS011;10223;50.862;4.360;2023-06-04T10:46:58;4.07;;;1.60;;
20124;SDS011;10223;50.862;4.360;2023-06-04T10:49:26;5.60;;;2.80;;
20124;SDS011;10223;50.862;4.360;2023-06-04T10:51:53;3.78;;;1.83;;
20124;SDS011;10223;50.862;4.360;2023-06-04T10:54:22;4.30;;;1.55;;
20124;SDS011;10223;50.862;4.360;2023-06-04T10:56:51;7.60;;;1.50;;
20124;SDS011;10223;50.862;4.360;2023-06-04T10:59:20;3.58;;;1.50;;
20124;SDS011;10223;50.862;4.360;2023-06-04T11:01:49;9.45;;;1.80;;
20124;SDS011;10223;50.862;4.360;2023-06-04T11:04:19;3.65;;;1.40;;
20124;SDS011;10223;50.862;4.360;2023-06-04T11:06:47;4.07;;;1.92;;
20124;SDS011;10223;50.862;4.360;2023-06-04T11:09:26;5.50;;;1.90;;
20124;SDS011;10223;50.862;4.360;2023-06-04T11:11:56;6.15;;;1.50;;
20124;SDS011;10223;50.862;4.360;2023-06-04T11:14:25;3.65;;;1.30;;
20124;SDS011;10223;50.862;4.360;2023-06-04T11:16:52;3.08;;;1.60;;
20124;SDS011;10223;50.862;4.360;2023-06-04T11:19:19;7.10;;;1.58;;
20124;SDS011;10223;50.862;4.360;2023-06-04T11:21:46;6.22;;;1.95;;
20124;SDS011;10223;50.862;4.360;2023-06-04T11:24:14;5.15;;;1.60;;
20124;SDS011;10223;50.862;4.360;2023-06-04T11:26:42;2.80;;;1.50;;
20124;SDS011;10223;50.862;4.360;2023-06-04T11:29:10;8.80;;;1.85;;
20124;SDS011;10223;50.862;4.360;2023-06-04T11:31:42;2.78;;;1.77;;
20124;SDS011;10223;50.862;4.360;2023-06-04T11:34:10;7.05;;;2.20;;
20124;SDS011;10223;50.862;4.360;2023-06-04T11:36:47;4.18;;;1.55;;
20124;SDS011;10223;50.862;4.360;2023-06-04T11:39:18;4.47;;;2.08;;
20124;SDS011;10223;50.862;4.360;2023-06-04T11:41:45;6.35;;;1.60;;
20124;SDS011;10223;50.862;4.360;2023-06-04T11:44:12;4.57;;;1.63;;
20124;SDS011;10223;50.862;4.360;2023-06-04T11:46:40;3.72;;;1.95;;
20124;SDS011;10223;50.862;4.360;2023-06-04T11:49:11;3.42;;;1.73;;
20124;SDS011;10223;50.862;4.360;2023-06-04T11:51:45;6.78;;;1.40;;
20124;SDS011;10223;50.862;4.360;2023-06-04T11:54:12;5.28;;;1.48;;
20124;SDS011;10223;50.862;4.360;2023-06-04T11:56:41;5.75;;;1.63;;
20124;SDS011;10223;50.862;4.360;2023-06-04T11:59:09;2.85;;;1.50;;
20124;SDS011;10223;50.862;4.360;2023-06-04T12:01:38;2.72;;;1.63;;
20124;SDS011;10223;50.862;4.360;2023-06-04T12:04:12;4.80;;;1.65;;
20124;SDS011;10223;50.862;4.360;2023-06-04T12:06:50;8.02;;;2.40;;
20124;SDS011;10223;50.862;4.360;2023-06-04T12:09:19;2.45;;;1.40;;
20124;SDS011;10223;50.862;4.360;2023-06-04T12:11:47;4.20;;;2.10;;
20124;SDS011;10223;50.862;4.360;2023-06-04T12:14:15;1.73;;;1.45;;
20124;SDS011;10223;50.862;4.360;2023-06-04T12:16:43;9.23;;;1.75;;
20124;SDS011;10223;50.862;4.360;2023-06-04T12:19:22;3.90;;;2.00;;
20124;SDS011;10223;50.862;4.360;2023-06-04T12:21:58;6.18;;;1.65;;
20124;SDS011;10223;50.862;4.360;2023-06-04T12:24:26;5.20;;;1.58;;
20124;SDS011;10223;50.862;4.360;2023-06-04T12:27:00;4.18;;;1.50;;
20124;SDS011;10223;50.862;4.360;2023-06-04T12:29:28;4.70;;;1.67;;
20124;SDS011;10223;50.862;4.360;2023-06-04T12:32:01;5.72;;;1.58;;
20124;SDS011;10223;50.862;4.360;2023-06-04T12:34:31;2.63;;;1.38;;
20124;SDS011;10223;50.862;4.360;2023-06-04T12:36:57;4.18;;;2.10;;
20124;SDS011;10223;50.862;4.360;2023-06-04T12:39:25;4.88;;;2.00;;
20124;SDS011;10223;50.862;4.360;2023-06-04T12:41:52;6.22;;;2.03;;
20124;SDS011;10223;50.862;4.360;2023-06-04T12:44:18;2.92;;;1.77;;
20124;SDS011;10223;50.862;4.360;2023-06-04T12:46:46;6.45;;;1.63;;
20124;SDS011;10223;50.862;4.360;2023-06-04T12:49:13;4.88;;;1.40;;
20124;SDS011;10223;50.862;4.360;2023-06-04T12:51:42;4.15;;;1.13;;
20124;SDS011;10223;50.862;4.360;2023-06-04T12:54:09;5.28;;;1.30;;
20124;SDS011;10223;50.862;4.360;2023-06-04T12:56:36;1.75;;;1.20;;
20124;SDS011;10223;50.862;4.360;2023-06-04T12:59:03;5.70;;;1.40;;
20124;SDS011;10223;50.862;4.360;2023-06-04T13:01:30;5.10;;;1.98;;
20124;SDS011;10223;50.862;4.360;2023-06-04T13:03:57;5.97;;;2.17;;
20124;SDS011;10223;50.862;4.360;2023-06-04T13:06:24;3.60;;;1.95;;
20124;SDS011;10223;50.862;4.360;2023-06-04T13:08:53;5.45;;;2.22;;
20124;SDS011;10223;50.862;4.360;2023-06-04T13:11:20;7.03;;;1.67;;
20124;SDS011;10223;50.862;4.360;2023-06-04T13:13:47;5.82;;;3.03;;
20124;SDS011;10223;50.862;4.360;2023-06-04T13:16:14;4.97;;;1.70;;
20124;SDS011;10223;50.862;4.360;2023-06-04T13:18:41;9.15;;;3.67;;
20124;SDS011;10223;50.862;4.360;2023-06-04T13:21:07;4.22;;;2.08;;
20124;SDS011;10223;50.862;4.360;2023-06-04T13:23:35;1.88;;;1.42;;
20124;SDS011;10223;50.862;4.360;2023-06-04T13:26:03;7.80;;;1.40;;
20124;SDS011;10223;50.862;4.360;2023-06-04T13:28:32;1.92;;;1.20;;
20124;SDS011;10223;50.862;4.360;2023-06-04T13:30:59;2.22;;;1.20;;
20124;SDS011;10223;50.862;4.360;2023-06-04T13:33:26;4.47;;;1.88;;
20124;SDS011;10223;50.862;4.360;2023-06-04T13:35:53;6.85;;;1.52;;
20124;SDS011;10223;50.862;4.360;2023-06-04T13:38:20;3.65;;;1.35;;
20124;SDS011;10223;50.862;4.360;2023-06-04T13:40:47;5.18;;;1.25;;
20124;SDS011;10223;50.862;4.360;2023-06-04T13:43:16;7.97;;;1.30;;
20124;SDS011;10223;50.862;4.360;2023-06-04T13:45:43;8.93;;;1.40;;
20124;SDS011;10223;50.862;4.360;2023-06-04T13:48:11;7.43;;;3.38;;
20124;SDS011;10223;50.862;4.360;2023-06-04T13:50:37;7.10;;;3.67;;
20124;SDS011;10223;50.862;4.360;2023-06-04T13:53:05;5.10;;;1.92;;
20124;SDS011;10223;50.862;4.360;2023-06-04T13:55:32;9.13;;;4.50;;
20124;SDS011;10223;50.862;4.360;2023-06-04T13:57:58;5.07;;;2.20;;
20124;SDS011;10223;50.862;4.360;2023-06-04T14:00:27;5.25;;;2.00;;
20124;SDS011;10223;50.862;4.360;2023-06-04T14:02:55;6.25;;;2.30;;
20124;SDS011;10223;50.862;4.360;2023-06-04T14:05:22;6.03;;;2.40;;
20124;SDS011;10223;50.862;4.360;2023-06-04T14:07:52;6.32;;;2.00;;
20124;SDS011;10223;50.862;4.360;2023-06-04T14:10:19;3.53;;;1.45;;
20124;SDS011;10223;50.862;4.360;2023-06-04T14:12:46;3.00;;;1.48;;
20124;SDS011;10223;50.862;4.360;2023-06-04T14:15:13;3.88;;;1.60;;
20124;SDS011;10223;50.862;4.360;2023-06-04T14:17:42;4.60;;;2.08;;
20124;SDS011;10223;50.862;4.360;2023-06-04T14:20:09;3.35;;;1.63;;
20124;SDS011;10223;50.862;4.360;2023-06-04T14:22:36;6.00;;;1.95;;
20124;SDS011;10223;50.862;4.360;2023-06-04T14:25:03;2.95;;;1.65;;
20124;SDS011;10223;50.862;4.360;2023-06-04T14:27:33;3.25;;;1.75;;
20124;SDS011;10223;50.862;4.360;2023-06-04T14:30:00;4.85;;;2.38;;
20124;SDS011;10223;50.862;4.360;2023-06-04T14:32:28;7.70;;;2.08;;
20124;SDS011;10223;50.862;4.360;2023-06-04T14:34:57;2.53;;;1.60;;
20124;SDS011;10223;50.862;4.360;2023-06-04T14:37:24;9.10;;;2.70;;
20124;SDS011;10223;50.862;4.360;2023-06-04T14:39:51;2.22;;;1.55;;
20124;SDS011;10223;50.862;4.360;2023-06-04T14:42:17;2.67;;;1.80;;
20124;SDS011;10223;50.862;4.360;2023-06-04T14:44:44;5.32;;;2.10;;
20124;SDS011;10223;50.862;4.360;2023-06-04T14:47:11;3.42;;;1.70;;
20124;SDS011;10223;50.862;4.360;2023-06-04T14:49:38;5.20;;;1.60;;
20124;SDS011;10223;50.862;4.360;2023-06-04T14:52:07;3.83;;;1.40;;
20124;SDS011;10223;50.862;4.360;2023-06-04T14:54:34;2.83;;;1.67;;